sensor_id;sensor_type;location;lat;lon;timestamp;P1;durP1;ratioP1;P2;durP2;ratioP2
6358;SDS011;3212;51.460;11.868;2024-03-23T00:54:53;8.70;;;3.73;;
6358;SDS011;3212;51.460;11.868;2024-03-23T00:58:15;9.80;;;3.50;;
6358;SDS011;3212;51.460;11.868;2024-03-23T01:01:38;7.93;;;3.23;;
6358;SDS011;3212;51.460;11.868;2024-03-23T01:05:01;7.43;;;3.50;;
6358;SDS011;3212;51.460;11.868;2024-03-23T01:08:23;9.13;;;4.03;;
6358;SDS011;3212;51.460;11.868;2024-03-23T01:11:46;11.07;;;3.80;;
6358;SDS011;3212;51.460;11.868;2024-03-23T01:15:08;6.23;;;3.17;;
6358;SDS011;3212;51.460;11.868;2024-03-23T01:18:30;6.30;;;3.50;;
6358;SDS011;3212;51.460;11.868;2024-03-23T01:21:53;8.23;;;4.07;;
6358;SDS011;3212;51.460;11.868;2024-03-23T01:25:16;7.43;;;4.33;;
6358;SDS011;3212;51.460;11.868;2024-03-23T01:28:38;10.10;;;4.87;;
6358;SDS011;3212;51.460;11.868;2024-03-23T01:32:01;11.20;;;4.27;;
6358;SDS011;3212;51.460;11.868;2024-03-23T01:35:24;8.00;;;4.50;;
6358;SDS011;3212;51.460;11.868;2024-03-23T01:38:48;10.07;;;4.53;;
6358;SDS011;3212;51.460;11.868;2024-03-23T01:42:11;7.70;;;4.60;;
6358;SDS011;3212;51.460;11.868;2024-03-23T01:45:33;7.63;;;3.90;;
6358;SDS011;3212;51.460;11.868;2024-03-23T01:48:55;7.30;;;4.70;;
6358;SDS011;3212;51.460;11.868;2024-03-23T01:52:18;9.97;;;4.00;;
6358;SDS011;3212;51.460;11.868;2024-03-23T01:55:41;5.63;;;3.63;;
6358;SDS011;3212;51.460;11.868;2024-03-23T01:59:04;8.67;;;4.27;;
6358;SDS011;3212;51.460;11.868;2024-03-23T02:02:26;7.22;;;4.07;;
6358;SDS011;3212;51.460;11.868;2024-03-23T02:05:49;5.93;;;3.30;;
6358;SDS011;3212;51.460;11.868;2024-03-23T02:09:11;9.33;;;4.33;;
6358;SDS011;3212;51.460;11.868;2024-03-23T02:12:34;8.53;;;4.40;;
6358;SDS011;3212;51.460;11.868;2024-03-23T02:15:57;7.03;;;3.87;;
6358;SDS011;3212;51.460;11.868;2024-03-23T02:19:25;9.80;;;4.40;;
6358;SDS011;3212;51.460;11.868;2024-03-23T02:22:54;7.45;;;4.15;;
6358;SDS011;3212;51.460;11.868;2024-03-23T02:26:16;6.90;;;3.90;;
6358;SDS011;3212;51.460;11.868;2024-03-23T02:29:38;7.77;;;4.33;;
6358;SDS011;3212;51.460;11.868;2024-03-23T02:33:01;8.20;;;4.20;;
6358;SDS011;3212;51.460;11.868;2024-03-23T02:36:24;9.17;;;4.23;;
6358;SDS011;3212;51.460;11.868;2024-03-23T02:39:47;10.27;;;4.37;;
6358;SDS011;3212;51.460;11.868;2024-03-23T02:43:10;10.27;;;4.37;;
6358;SDS011;3212;51.460;11.868;2024-03-23T02:46:33;8.77;;;5.10;;
6358;SDS011;3212;51.460;11.868;2024-03-23T02:49:55;10.77;;;5.53;;
6358;SDS011;3212;51.460;11.868;2024-03-23T02:53:19;15.33;;;6.30;;
6358;SDS011;3212;51.460;11.868;2024-03-23T02:56:41;10.33;;;4.47;;
6358;SDS011;3212;51.460;11.868;2024-03-23T03:00:05;7.60;;;4.93;;
6358;SDS011;3212;51.460;11.868;2024-03-23T03:03:29;9.63;;;5.30;;
6358;SDS011;3212;51.460;11.868;2024-03-23T03:06:51;9.20;;;5.00;;
6358;SDS011;3212;51.460;11.868;2024-03-23T03:10:14;11.03;;;5.47;;
6358;SDS011;3212;51.460;11.868;2024-03-23T03:13:36;11.70;;;5.63;;
6358;SDS011;3212;51.460;11.868;2024-03-23T03:16:58;13.10;;;5.70;;
6358;SDS011;3212;51.460;11.868;2024-03-23T03:20:21;16.33;;;5.67;;
6358;SDS011;3212;51.460;11.868;2024-03-23T03:23:44;10.63;;;5.80;;
6358;SDS011;3212;51.460;11.868;2024-03-23T03:27:07;11.23;;;5.47;;
6358;SDS011;3212;51.460;11.868;2024-03-23T03:30:29;10.80;;;5.70;;
6358;SDS011;3212;51.460;11.868;2024-03-23T03:33:53;12.67;;;4.77;;
6358;SDS011;3212;51.460;11.868;2024-03-23T03:37:16;9.70;;;4.87;;
6358;SDS011;3212;51.460;11.868;2024-03-23T03:40:39;13.00;;;5.70;;
6358;SDS011;3212;51.460;11.868;2024-03-23T03:44:02;11.33;;;4.90;;
6358;SDS011;3212;51.460;11.868;2024-03-23T03:47:26;12.23;;;5.47;;
6358;SDS011;3212;51.460;11.868;2024-03-23T03:50:49;12.03;;;4.80;;
6358;SDS011;3212;51.460;11.868;2024-03-23T03:54:12;13.00;;;5.50;;
6358;SDS011;3212;51.460;11.868;2024-03-23T03:57:35;10.03;;;5.10;;
6358;SDS011;3212;51.460;11.868;2024-03-23T04:00:57;8.90;;;5.23;;
6358;SDS011;3212;51.460;11.868;2024-03-23T04:04:20;11.27;;;5.23;;
6358;SDS011;3212;51.460;11.868;2024-03-23T04:07:43;15.60;;;7.10;;
6358;SDS011;3212;51.460;11.868;2024-03-23T04:11:06;10.30;;;5.07;;
6358;SDS011;3212;51.460;11.868;2024-03-23T04:14:28;12.13;;;5.97;;
6358;SDS011;3212;51.460;11.868;2024-03-23T04:17:51;11.40;;;5.37;;
6358;SDS011;3212;51.460;11.868;2024-03-23T04:21:14;13.20;;;5.83;;
6358;SDS011;3212;51.460;11.868;2024-03-23T04:24:36;11.80;;;5.43;;
6358;SDS011;3212;51.460;11.868;2024-03-23T04:27:59;10.83;;;5.40;;
6358;SDS011;3212;51.460;11.868;2024-03-23T04:31:21;14.20;;;5.70;;
6358;SDS011;3212;51.460;11.868;2024-03-23T04:34:45;20.02;;;8.85;;
6358;SDS011;3212;51.460;11.868;2024-03-23T04:38:07;13.97;;;6.97;;
6358;SDS011;3212;51.460;11.868;2024-03-23T04:41:30;15.37;;;7.27;;
6358;SDS011;3212;51.460;11.868;2024-03-23T04:44:53;16.30;;;7.30;;
6358;SDS011;3212;51.460;11.868;2024-03-23T04:48:15;15.00;;;6.70;;
6358;SDS011;3212;51.460;11.868;2024-03-23T04:51:38;16.40;;;7.93;;
6358;SDS011;3212;51.460;11.868;2024-03-23T04:55:01;15.30;;;7.87;;
6358;SDS011;3212;51.460;11.868;2024-03-23T04:58:24;21.57;;;9.80;;
6358;SDS011;3212;51.460;11.868;2024-03-23T05:01:47;17.67;;;8.27;;
6358;SDS011;3212;51.460;11.868;2024-03-23T05:05:11;15.90;;;7.40;;
6358;SDS011;3212;51.460;11.868;2024-03-23T05:08:33;18.57;;;7.80;;
6358;SDS011;3212;51.460;11.868;2024-03-23T05:11:56;17.07;;;8.93;;
6358;SDS011;3212;51.460;11.868;2024-03-23T05:15:18;17.23;;;7.87;;
6358;SDS011;3212;51.460;11.868;2024-03-23T05:18:40;16.40;;;7.80;;
6358;SDS011;3212;51.460;11.868;2024-03-23T05:22:03;17.53;;;7.40;;
6358;SDS011;3212;51.460;11.868;2024-03-23T05:25:26;21.83;;;8.00;;
6358;SDS011;3212;51.460;11.868;2024-03-23T05:28:49;13.97;;;7.43;;
6358;SDS011;3212;51.460;11.868;2024-03-23T05:32:12;13.67;;;6.77;;
6358;SDS011;3212;51.460;11.868;2024-03-23T05:35:35;16.83;;;7.07;;
6358;SDS011;3212;51.460;11.868;2024-03-23T05:38:57;14.40;;;6.10;;
6358;SDS011;3212;51.460;11.868;2024-03-23T05:42:20;13.13;;;6.17;;
6358;SDS011;3212;51.460;11.868;2024-03-23T05:45:43;12.37;;;6.40;;
6358;SDS011;3212;51.460;11.868;2024-03-23T05:49:06;16.00;;;6.50;;
6358;SDS011;3212;51.460;11.868;2024-03-23T05:52:30;18.47;;;6.20;;
6358;SDS011;3212;51.460;11.868;2024-03-23T05:56:00;16.90;;;7.00;;
6358;SDS011;3212;51.460;11.868;2024-03-23T05:59:15;14.47;;;7.50;;
6358;SDS011;3212;51.460;11.868;2024-03-23T06:02:39;19.33;;;7.17;;
6358;SDS011;3212;51.460;11.868;2024-03-23T06:06:02;15.60;;;6.83;;
6358;SDS011;3212;51.460;11.868;2024-03-23T06:09:26;18.10;;;7.40;;
6358;SDS011;3212;51.460;11.868;2024-03-23T06:12:48;11.10;;;5.43;;
6358;SDS011;3212;51.460;11.868;2024-03-23T06:16:11;11.30;;;4.83;;
6358;SDS011;3212;51.460;11.868;2024-03-23T06:19:34;7.53;;;3.70;;
6358;SDS011;3212;51.460;11.868;2024-03-23T06:22:57;6.90;;;3.20;;
6358;SDS011;3212;51.460;11.868;2024-03-23T06:26:20;9.45;;;3.20;;
6358;SDS011;3212;51.460;11.868;2024-03-23T06:29:43;3.50;;;1.80;;
6358;SDS011;3212;51.460;11.868;2024-03-23T06:33:06;4.50;;;2.00;;
6358;SDS011;3212;51.460;11.868;2024-03-23T06:36:28;4.20;;;2.30;;
6358;SDS011;3212;51.460;11.868;2024-03-23T06:39:50;5.73;;;2.20;;
6358;SDS011;3212;51.460;11.868;2024-03-23T06:43:13;5.27;;;2.23;;
6358;SDS011;3212;51.460;11.868;2024-03-23T06:46:36;22.53;;;9.40;;
6358;SDS011;3212;51.460;11.868;2024-03-23T06:49:59;4.97;;;3.40;;
6358;SDS011;3212;51.460;11.868;2024-03-23T06:53:23;6.07;;;2.77;;
6358;SDS011;3212;51.460;11.868;2024-03-23T06:56:45;5.60;;;3.33;;
6358;SDS011;3212;51.460;11.868;2024-03-23T07:00:08;7.40;;;3.17;;
6358;SDS011;3212;51.460;11.868;2024-03-23T07:03:30;4.80;;;2.70;;
6358;SDS011;3212;51.460;11.868;2024-03-23T07:06:53;7.23;;;3.53;;
6358;SDS011;3212;51.460;11.868;2024-03-23T07:10:16;6.57;;;2.70;;
6358;SDS011;3212;51.460;11.868;2024-03-23T07:13:39;3.00;;;1.43;;
6358;SDS011;3212;51.460;11.868;2024-03-23T07:17:02;2.10;;;1.57;;
6358;SDS011;3212;51.460;11.868;2024-03-23T07:20:25;2.47;;;1.70;;
6358;SDS011;3212;51.460;11.868;2024-03-23T07:23:48;11.20;;;1.43;;
6358;SDS011;3212;51.460;11.868;2024-03-23T07:27:11;1.63;;;1.20;;
6358;SDS011;3212;51.460;11.868;2024-03-23T07:30:34;2.37;;;1.90;;
6358;SDS011;3212;51.460;11.868;2024-03-23T07:33:56;2.70;;;1.37;;
6358;SDS011;3212;51.460;11.868;2024-03-23T07:37:20;2.43;;;1.90;;
6358;SDS011;3212;51.460;11.868;2024-03-23T07:40:42;1.67;;;1.40;;
6358;SDS011;3212;51.460;11.868;2024-03-23T07:44:04;4.90;;;2.33;;
6358;SDS011;3212;51.460;11.868;2024-03-23T07:47:27;1.20;;;0.93;;
6358;SDS011;3212;51.460;11.868;2024-03-23T07:54:19;1.13;;;0.80;;
6358;SDS011;3212;51.460;11.868;2024-03-23T07:57:41;6.33;;;1.30;;
6358;SDS011;3212;51.460;11.868;2024-03-23T08:01:05;1.53;;;0.93;;
6358;SDS011;3212;51.460;11.868;2024-03-23T08:04:27;1.77;;;1.13;;
6358;SDS011;3212;51.460;11.868;2024-03-23T08:07:50;3.43;;;2.20;;
6358;SDS011;3212;51.460;11.868;2024-03-23T08:11:12;1.60;;;1.20;;
6358;SDS011;3212;51.460;11.868;2024-03-23T08:14:35;3.10;;;1.20;;
6358;SDS011;3212;51.460;11.868;2024-03-23T08:17:58;2.40;;;1.10;;
6358;SDS011;3212;51.460;11.868;2024-03-23T08:21:20;2.00;;;1.40;;
6358;SDS011;3212;51.460;11.868;2024-03-23T08:24:43;3.50;;;1.10;;
6358;SDS011;3212;51.460;11.868;2024-03-23T08:28:05;6.20;;;1.20;;
6358;SDS011;3212;51.460;11.868;2024-03-23T08:31:29;4.13;;;1.40;;
6358;SDS011;3212;51.460;11.868;2024-03-23T08:34:52;2.40;;;1.03;;
6358;SDS011;3212;51.460;11.868;2024-03-23T08:38:15;3.13;;;1.27;;
6358;SDS011;3212;51.460;11.868;2024-03-23T08:41:38;1.90;;;1.00;;
6358;SDS011;3212;51.460;11.868;2024-03-23T08:45:02;2.27;;;1.10;;
6358;SDS011;3212;51.460;11.868;2024-03-23T08:48:25;2.30;;;1.50;;
6358;SDS011;3212;51.460;11.868;2024-03-23T08:51:47;4.00;;;2.37;;
6358;SDS011;3212;51.460;11.868;2024-03-23T08:55:10;3.57;;;1.47;;
6358;SDS011;3212;51.460;11.868;2024-03-23T08:58:33;2.10;;;1.20;;
6358;SDS011;3212;51.460;11.868;2024-03-23T09:01:55;3.37;;;1.20;;
6358;SDS011;3212;51.460;11.868;2024-03-23T09:05:18;1.20;;;0.90;;
6358;SDS011;3212;51.460;11.868;2024-03-23T09:08:42;1.20;;;1.10;;
6358;SDS011;3212;51.460;11.868;2024-03-23T09:12:05;1.30;;;0.93;;
6358;SDS011;3212;51.460;11.868;2024-03-23T09:15:27;1.40;;;1.30;;
6358;SDS011;3212;51.460;11.868;2024-03-23T09:18:54;2.80;;;1.97;;
6358;SDS011;3212;51.460;11.868;2024-03-23T09:22:17;5.00;;;1.77;;
6358;SDS011;3212;51.460;11.868;2024-03-23T09:25:39;2.20;;;1.60;;
6358;SDS011;3212;51.460;11.868;2024-03-23T09:29:02;2.60;;;1.77;;
6358;SDS011;3212;51.460;11.868;2024-03-23T09:32:24;2.90;;;2.30;;
6358;SDS011;3212;51.460;11.868;2024-03-23T09:35:47;2.70;;;2.43;;
6358;SDS011;3212;51.460;11.868;2024-03-23T09:39:15;3.73;;;2.80;;
6358;SDS011;3212;51.460;11.868;2024-03-23T09:42:38;3.30;;;2.87;;
6358;SDS011;3212;51.460;11.868;2024-03-23T09:46:01;4.80;;;3.40;;
6358;SDS011;3212;51.460;11.868;2024-03-23T09:49:24;6.20;;;3.80;;
6358;SDS011;3212;51.460;11.868;2024-03-23T09:52:47;4.10;;;2.80;;
6358;SDS011;3212;51.460;11.868;2024-03-23T09:56:09;2.83;;;2.20;;
6358;SDS011;3212;51.460;11.868;2024-03-23T09:59:32;3.43;;;2.43;;
6358;SDS011;3212;51.460;11.868;2024-03-23T10:02:55;3.23;;;2.60;;
6358;SDS011;3212;51.460;11.868;2024-03-23T10:06:21;7.03;;;2.13;;
6358;SDS011;3212;51.460;11.868;2024-03-23T10:09:41;1.90;;;1.70;;
6358;SDS011;3212;51.460;11.868;2024-03-23T10:13:04;7.50;;;2.40;;
6358;SDS011;3212;51.460;11.868;2024-03-23T10:16:27;2.70;;;1.80;;
6358;SDS011;3212;51.460;11.868;2024-03-23T10:19:50;2.50;;;1.77;;
6358;SDS011;3212;51.460;11.868;2024-03-23T10:23:16;2.33;;;2.13;;
6358;SDS011;3212;51.460;11.868;2024-03-23T10:26:39;3.00;;;1.73;;
6358;SDS011;3212;51.460;11.868;2024-03-23T10:30:08;4.80;;;1.20;;
6358;SDS011;3212;51.460;11.868;2024-03-23T10:33:31;3.47;;;1.30;;
6358;SDS011;3212;51.460;11.868;2024-03-23T10:36:54;4.90;;;1.17;;
6358;SDS011;3212;51.460;11.868;2024-03-23T10:40:17;2.93;;;1.00;;
6358;SDS011;3212;51.460;11.868;2024-03-23T10:43:40;2.60;;;1.13;;
6358;SDS011;3212;51.460;11.868;2024-03-23T10:47:03;1.27;;;1.05;;
6358;SDS011;3212;51.460;11.868;2024-03-23T10:50:25;1.93;;;1.03;;
6358;SDS011;3212;51.460;11.868;2024-03-23T10:53:48;5.70;;;1.60;;
6358;SDS011;3212;51.460;11.868;2024-03-23T10:57:13;8.20;;;1.20;;
6358;SDS011;3212;51.460;11.868;2024-03-23T11:00:36;3.20;;;1.30;;
6358;SDS011;3212;51.460;11.868;2024-03-23T11:03:58;2.27;;;1.57;;
6358;SDS011;3212;51.460;11.868;2024-03-23T11:07:30;1.33;;;1.10;;
6358;SDS011;3212;51.460;11.868;2024-03-23T11:10:53;5.53;;;1.20;;
6358;SDS011;3212;51.460;11.868;2024-03-23T11:14:21;7.33;;;1.30;;
6358;SDS011;3212;51.460;11.868;2024-03-23T11:17:38;2.00;;;1.10;;
6358;SDS011;3212;51.460;11.868;2024-03-23T11:21:00;1.30;;;0.90;;
6358;SDS011;3212;51.460;11.868;2024-03-23T11:24:22;1.67;;;0.90;;
6358;SDS011;3212;51.460;11.868;2024-03-23T11:27:45;1.10;;;1.00;;
6358;SDS011;3212;51.460;11.868;2024-03-23T11:31:09;1.13;;;0.60;;
6358;SDS011;3212;51.460;11.868;2024-03-23T11:34:31;1.13;;;0.80;;
6358;SDS011;3212;51.460;11.868;2024-03-23T11:41:24;2.50;;;0.90;;
6358;SDS011;3212;51.460;11.868;2024-03-23T11:44:47;5.63;;;0.90;;
6358;SDS011;3212;51.460;11.868;2024-03-23T11:48:11;2.13;;;0.90;;
6358;SDS011;3212;51.460;11.868;2024-03-23T11:51:33;2.40;;;1.03;;
6358;SDS011;3212;51.460;11.868;2024-03-23T11:55:03;1.00;;;0.90;;
6358;SDS011;3212;51.460;11.868;2024-03-23T11:58:26;1.40;;;1.10;;
6358;SDS011;3212;51.460;11.868;2024-03-23T12:01:48;2.17;;;1.13;;
6358;SDS011;3212;51.460;11.868;2024-03-23T12:05:14;5.23;;;1.60;;
6358;SDS011;3212;51.460;11.868;2024-03-23T12:08:35;5.87;;;1.40;;
6358;SDS011;3212;51.460;11.868;2024-03-23T12:11:58;2.23;;;1.50;;
6358;SDS011;3212;51.460;11.868;2024-03-23T12:15:21;2.13;;;1.50;;
6358;SDS011;3212;51.460;11.868;2024-03-23T12:18:44;7.07;;;2.10;;
6358;SDS011;3212;51.460;11.868;2024-03-23T12:22:08;4.50;;;2.03;;
6358;SDS011;3212;51.460;11.868;2024-03-23T12:25:30;6.10;;;2.17;;
6358;SDS011;3212;51.460;11.868;2024-03-23T12:28:52;4.83;;;2.07;;
6358;SDS011;3212;51.460;11.868;2024-03-23T12:32:15;3.20;;;1.90;;
6358;SDS011;3212;51.460;11.868;2024-03-23T12:35:38;6.10;;;2.07;;
6358;SDS011;3212;51.460;11.868;2024-03-23T12:39:00;5.93;;;2.17;;
6358;SDS011;3212;51.460;11.868;2024-03-23T12:42:23;5.73;;;2.23;;
6358;SDS011;3212;51.460;11.868;2024-03-23T12:45:47;6.63;;;2.10;;
6358;SDS011;3212;51.460;11.868;2024-03-23T12:49:09;4.73;;;1.90;;
6358;SDS011;3212;51.460;11.868;2024-03-23T12:52:32;5.22;;;2.55;;
6358;SDS011;3212;51.460;11.868;2024-03-23T12:55:54;5.40;;;2.40;;
6358;SDS011;3212;51.460;11.868;2024-03-23T12:59:18;4.73;;;2.33;;
6358;SDS011;3212;51.460;11.868;2024-03-23T13:02:40;8.93;;;2.33;;
6358;SDS011;3212;51.460;11.868;2024-03-23T13:06:03;7.27;;;2.50;;
6358;SDS011;3212;51.460;11.868;2024-03-23T13:09:26;13.77;;;2.70;;
6358;SDS011;3212;51.460;11.868;2024-03-23T13:12:48;6.90;;;2.90;;
6358;SDS011;3212;51.460;11.868;2024-03-23T13:16:11;7.50;;;2.53;;
6358;SDS011;3212;51.460;11.868;2024-03-23T13:19:34;7.30;;;2.63;;
6358;SDS011;3212;51.460;11.868;2024-03-23T13:22:56;8.00;;;3.07;;
6358;SDS011;3212;51.460;11.868;2024-03-23T13:26:18;6.10;;;3.40;;
6358;SDS011;3212;51.460;11.868;2024-03-23T13:29:41;5.90;;;4.10;;
6358;SDS011;3212;51.460;11.868;2024-03-23T13:33:03;6.97;;;3.87;;
6358;SDS011;3212;51.460;11.868;2024-03-23T13:36:26;7.03;;;3.90;;
6358;SDS011;3212;51.460;11.868;2024-03-23T13:39:48;5.53;;;2.93;;
6358;SDS011;3212;51.460;11.868;2024-03-23T13:43:10;5.17;;;2.70;;
6358;SDS011;3212;51.460;11.868;2024-03-23T13:46:34;8.70;;;3.40;;
6358;SDS011;3212;51.460;11.868;2024-03-23T13:49:56;4.90;;;2.90;;
6358;SDS011;3212;51.460;11.868;2024-03-23T13:53:19;2.53;;;1.00;;
6358;SDS011;3212;51.460;11.868;2024-03-23T13:56:41;2.10;;;1.30;;
6358;SDS011;3212;51.460;11.868;2024-03-23T14:00:06;2.63;;;1.50;;
6358;SDS011;3212;51.460;11.868;2024-03-23T14:03:35;2.30;;;1.57;;
6358;SDS011;3212;51.460;11.868;2024-03-23T14:06:58;3.27;;;1.93;;
6358;SDS011;3212;51.460;11.868;2024-03-23T14:10:21;2.93;;;1.90;;
6358;SDS011;3212;51.460;11.868;2024-03-23T14:13:43;1.97;;;1.60;;
6358;SDS011;3212;51.460;11.868;2024-03-23T14:17:05;2.90;;;1.87;;
6358;SDS011;3212;51.460;11.868;2024-03-23T14:20:29;2.20;;;1.90;;
6358;SDS011;3212;51.460;11.868;2024-03-23T14:23:51;2.63;;;1.83;;
6358;SDS011;3212;51.460;11.868;2024-03-23T14:27:13;2.90;;;2.20;;
6358;SDS011;3212;51.460;11.868;2024-03-23T14:30:37;6.23;;;2.90;;
6358;SDS011;3212;51.460;11.868;2024-03-23T14:34:00;6.23;;;2.97;;
6358;SDS011;3212;51.460;11.868;2024-03-23T14:37:22;5.10;;;2.73;;
6358;SDS011;3212;51.460;11.868;2024-03-23T14:40:45;5.03;;;2.70;;
6358;SDS011;3212;51.460;11.868;2024-03-23T14:44:07;6.00;;;2.63;;
6358;SDS011;3212;51.460;11.868;2024-03-23T14:47:29;5.90;;;2.90;;
6358;SDS011;3212;51.460;11.868;2024-03-23T14:50:56;3.60;;;2.60;;
6358;SDS011;3212;51.460;11.868;2024-03-23T14:54:19;4.10;;;2.97;;
6358;SDS011;3212;51.460;11.868;2024-03-23T14:57:42;5.40;;;2.57;;
6358;SDS011;3212;51.460;11.868;2024-03-23T15:01:05;5.87;;;2.50;;
6358;SDS011;3212;51.460;11.868;2024-03-23T15:04:27;3.93;;;2.83;;
6358;SDS011;3212;51.460;11.868;2024-03-23T15:07:50;6.37;;;3.10;;
6358;SDS011;3212;51.460;11.868;2024-03-23T15:11:13;4.50;;;2.93;;
6358;SDS011;3212;51.460;11.868;2024-03-23T15:14:35;3.93;;;2.93;;
6358;SDS011;3212;51.460;11.868;2024-03-23T15:17:58;5.23;;;3.20;;
6358;SDS011;3212;51.460;11.868;2024-03-23T15:21:21;4.07;;;3.13;;
6358;SDS011;3212;51.460;11.868;2024-03-23T15:24:43;5.50;;;3.00;;
6358;SDS011;3212;51.460;11.868;2024-03-23T15:28:07;5.63;;;3.10;;
6358;SDS011;3212;51.460;11.868;2024-03-23T15:31:29;6.60;;;3.07;;
6358;SDS011;3212;51.460;11.868;2024-03-23T15:34:52;4.77;;;3.30;;
6358;SDS011;3212;51.460;11.868;2024-03-23T15:38:15;6.53;;;3.67;;
6358;SDS011;3212;51.460;11.868;2024-03-23T15:41:38;4.23;;;3.00;;
6358;SDS011;3212;51.460;11.868;2024-03-23T15:45:01;3.60;;;2.80;;
6358;SDS011;3212;51.460;11.868;2024-03-23T15:48:23;5.50;;;3.23;;
6358;SDS011;3212;51.460;11.868;2024-03-23T15:51:46;6.20;;;3.13;;
6358;SDS011;3212;51.460;11.868;2024-03-23T15:55:08;4.20;;;2.80;;
6358;SDS011;3212;51.460;11.868;2024-03-23T15:58:31;9.60;;;2.57;;
6358;SDS011;3212;51.460;11.868;2024-03-23T16:01:53;4.70;;;2.97;;
6358;SDS011;3212;51.460;11.868;2024-03-23T16:05:16;5.27;;;3.27;;
6358;SDS011;3212;51.460;11.868;2024-03-23T16:08:38;5.27;;;3.00;;
6358;SDS011;3212;51.460;11.868;2024-03-23T16:12:01;5.43;;;3.70;;
6358;SDS011;3212;51.460;11.868;2024-03-23T16:15:24;4.90;;;3.13;;
6358;SDS011;3212;51.460;11.868;2024-03-23T16:18:47;5.57;;;3.47;;
6358;SDS011;3212;51.460;11.868;2024-03-23T16:22:10;5.90;;;3.80;;
6358;SDS011;3212;51.460;11.868;2024-03-23T16:25:33;8.00;;;3.00;;
6358;SDS011;3212;51.460;11.868;2024-03-23T16:29:01;4.73;;;2.97;;
6358;SDS011;3212;51.460;11.868;2024-03-23T16:32:24;2.53;;;2.10;;
6358;SDS011;3212;51.460;11.868;2024-03-23T16:39:16;6.13;;;2.53;;
6358;SDS011;3212;51.460;11.868;2024-03-23T16:42:38;7.77;;;2.80;;
6358;SDS011;3212;51.460;11.868;2024-03-23T16:46:04;7.27;;;2.97;;
6358;SDS011;3212;51.460;11.868;2024-03-23T16:49:26;7.33;;;4.40;;
6358;SDS011;3212;51.460;11.868;2024-03-23T16:52:49;6.47;;;3.20;;
6358;SDS011;3212;51.460;11.868;2024-03-23T16:56:12;2.90;;;2.20;;
6358;SDS011;3212;51.460;11.868;2024-03-23T16:59:34;4.10;;;2.33;;
6358;SDS011;3212;51.460;11.868;2024-03-23T17:02:57;8.40;;;4.90;;
6358;SDS011;3212;51.460;11.868;2024-03-23T17:06:20;2.77;;;2.30;;
6358;SDS011;3212;51.460;11.868;2024-03-23T17:09:47;4.93;;;2.50;;
6358;SDS011;3212;51.460;11.868;2024-03-23T17:13:09;2.50;;;2.30;;
6358;SDS011;3212;51.460;11.868;2024-03-23T17:16:31;4.60;;;3.33;;
6358;SDS011;3212;51.460;11.868;2024-03-23T17:20:00;3.63;;;2.80;;
6358;SDS011;3212;51.460;11.868;2024-03-23T17:23:24;3.50;;;2.47;;
6358;SDS011;3212;51.460;11.868;2024-03-23T17:26:46;4.27;;;3.00;;
6358;SDS011;3212;51.460;11.868;2024-03-23T17:30:09;10.70;;;5.40;;
6358;SDS011;3212;51.460;11.868;2024-03-23T17:33:32;25.50;;;14.03;;
6358;SDS011;3212;51.460;11.868;2024-03-23T17:36:54;8.93;;;5.10;;
6358;SDS011;3212;51.460;11.868;2024-03-23T17:40:17;4.40;;;3.27;;
6358;SDS011;3212;51.460;11.868;2024-03-23T17:43:39;3.67;;;2.77;;
6358;SDS011;3212;51.460;11.868;2024-03-23T17:47:02;3.10;;;2.37;;
6358;SDS011;3212;51.460;11.868;2024-03-23T17:50:25;4.00;;;1.83;;
6358;SDS011;3212;51.460;11.868;2024-03-23T17:53:47;3.23;;;2.30;;
6358;SDS011;3212;51.460;11.868;2024-03-23T17:57:10;2.53;;;1.90;;
6358;SDS011;3212;51.460;11.868;2024-03-23T18:00:33;3.43;;;1.87;;
6358;SDS011;3212;51.460;11.868;2024-03-23T18:03:56;4.23;;;1.80;;
6358;SDS011;3212;51.460;11.868;2024-03-23T18:07:19;2.20;;;1.77;;
6358;SDS011;3212;51.460;11.868;2024-03-23T18:10:42;2.13;;;1.70;;
6358;SDS011;3212;51.460;11.868;2024-03-23T18:14:05;2.67;;;1.95;;
6358;SDS011;3212;51.460;11.868;2024-03-23T18:17:28;4.70;;;2.10;;
6358;SDS011;3212;51.460;11.868;2024-03-23T18:20:51;2.30;;;1.67;;
6358;SDS011;3212;51.460;11.868;2024-03-23T18:24:13;2.63;;;2.07;;
6358;SDS011;3212;51.460;11.868;2024-03-23T18:27:36;2.35;;;2.15;;
6358;SDS011;3212;51.460;11.868;2024-03-23T18:30:58;3.10;;;2.10;;
6358;SDS011;3212;51.460;11.868;2024-03-23T18:34:20;2.60;;;2.10;;
6358;SDS011;3212;51.460;11.868;2024-03-23T18:37:43;4.23;;;2.13;;
6358;SDS011;3212;51.460;11.868;2024-03-23T18:41:06;1.80;;;1.70;;
6358;SDS011;3212;51.460;11.868;2024-03-23T18:44:30;3.27;;;1.60;;
6358;SDS011;3212;51.460;11.868;2024-03-23T18:47:53;7.00;;;3.40;;
6358;SDS011;3212;51.460;11.868;2024-03-23T18:51:15;2.43;;;1.90;;
6358;SDS011;3212;51.460;11.868;2024-03-23T18:54:38;2.90;;;2.00;;
6358;SDS011;3212;51.460;11.868;2024-03-23T18:58:00;4.77;;;2.50;;
6358;SDS011;3212;51.460;11.868;2024-03-23T19:01:23;25.83;;;9.70;;
6358;SDS011;3212;51.460;11.868;2024-03-23T19:04:45;15.17;;;8.27;;
6358;SDS011;3212;51.460;11.868;2024-03-23T19:08:07;5.93;;;2.40;;
6358;SDS011;3212;51.460;11.868;2024-03-23T19:11:31;20.40;;;10.60;;
6358;SDS011;3212;51.460;11.868;2024-03-23T19:14:53;10.27;;;6.53;;
6358;SDS011;3212;51.460;11.868;2024-03-23T19:18:16;5.87;;;3.43;;
6358;SDS011;3212;51.460;11.868;2024-03-23T19:21:39;3.40;;;2.50;;
6358;SDS011;3212;51.460;11.868;2024-03-23T19:25:02;3.57;;;2.40;;
6358;SDS011;3212;51.460;11.868;2024-03-23T19:28:26;4.17;;;2.27;;
6358;SDS011;3212;51.460;11.868;2024-03-23T19:31:48;3.23;;;2.10;;
6358;SDS011;3212;51.460;11.868;2024-03-23T19:35:10;5.07;;;2.43;;
6358;SDS011;3212;51.460;11.868;2024-03-23T19:38:32;3.90;;;2.00;;
6358;SDS011;3212;51.460;11.868;2024-03-23T19:41:55;2.00;;;1.80;;
6358;SDS011;3212;51.460;11.868;2024-03-23T19:45:17;1.83;;;1.73;;
6358;SDS011;3212;51.460;11.868;2024-03-23T19:48:40;2.00;;;1.47;;
6358;SDS011;3212;51.460;11.868;2024-03-23T19:52:02;3.90;;;1.80;;
6358;SDS011;3212;51.460;11.868;2024-03-23T19:55:26;2.27;;;1.63;;
6358;SDS011;3212;51.460;11.868;2024-03-23T19:58:49;2.67;;;1.63;;
6358;SDS011;3212;51.460;11.868;2024-03-23T20:02:11;3.00;;;2.30;;
6358;SDS011;3212;51.460;11.868;2024-03-23T20:05:34;3.63;;;1.80;;
6358;SDS011;3212;51.460;11.868;2024-03-23T20:08:58;5.60;;;2.17;;
6358;SDS011;3212;51.460;11.868;2024-03-23T20:12:20;3.23;;;1.77;;
6358;SDS011;3212;51.460;11.868;2024-03-23T20:15:51;2.60;;;1.93;;
6358;SDS011;3212;51.460;11.868;2024-03-23T20:19:05;3.23;;;2.10;;
6358;SDS011;3212;51.460;11.868;2024-03-23T20:22:27;2.97;;;1.80;;
6358;SDS011;3212;51.460;11.868;2024-03-23T20:25:51;3.10;;;2.10;;
6358;SDS011;3212;51.460;11.868;2024-03-23T20:29:15;2.90;;;2.03;;
6358;SDS011;3212;51.460;11.868;2024-03-23T20:32:38;4.80;;;2.20;;
6358;SDS011;3212;51.460;11.868;2024-03-23T20:36:01;4.07;;;2.00;;
6358;SDS011;3212;51.460;11.868;2024-03-23T20:39:24;2.67;;;2.17;;
6358;SDS011;3212;51.460;11.868;2024-03-23T20:42:46;4.07;;;2.40;;
6358;SDS011;3212;51.460;11.868;2024-03-23T20:46:09;3.53;;;2.47;;
6358;SDS011;3212;51.460;11.868;2024-03-23T20:49:31;4.80;;;2.60;;
6358;SDS011;3212;51.460;11.868;2024-03-23T20:52:54;2.70;;;2.30;;
6358;SDS011;3212;51.460;11.868;2024-03-23T20:56:16;4.60;;;2.70;;
6358;SDS011;3212;51.460;11.868;2024-03-23T20:59:38;3.20;;;2.27;;
6358;SDS011;3212;51.460;11.868;2024-03-23T21:03:01;2.10;;;1.90;;
6358;SDS011;3212;51.460;11.868;2024-03-23T21:06:24;2.97;;;2.40;;
6358;SDS011;3212;51.460;11.868;2024-03-23T21:09:47;3.37;;;1.97;;
6358;SDS011;3212;51.460;11.868;2024-03-23T21:13:10;4.83;;;2.10;;
6358;SDS011;3212;51.460;11.868;2024-03-23T21:16:33;2.93;;;2.00;;
6358;SDS011;3212;51.460;11.868;2024-03-23T21:19:55;4.10;;;2.63;;
6358;SDS011;3212;51.460;11.868;2024-03-23T21:23:17;4.13;;;2.30;;
6358;SDS011;3212;51.460;11.868;2024-03-23T21:26:40;3.63;;;2.27;;
6358;SDS011;3212;51.460;11.868;2024-03-23T21:30:03;3.20;;;2.30;;
6358;SDS011;3212;51.460;11.868;2024-03-23T21:33:26;3.43;;;2.37;;
6358;SDS011;3212;51.460;11.868;2024-03-23T21:36:49;5.17;;;2.50;;
6358;SDS011;3212;51.460;11.868;2024-03-23T21:40:11;4.63;;;2.40;;